TimeCST,TemperatureF,Dew PointF,Humidity,Sea Level PressureIn,VisibilityMPH,Wind Direction,Wind SpeedMPH,Gust SpeedMPH,PrecipitationIn,Events,Conditions,WindDirDegrees,DateUTC
12:00 AM,66,66,100,29.88,6,,2.3,,,,Haze,,2012-10-07 06:00:00
12:00 AM,66.2,66.2,100,30.04,6.2,Variable,2.3,-,N/A,,Mostly Cloudy,0,2012-10-07 06:00:00
1:00 AM,64.4,64.4,100,30.01,6.2,Calm,Calm,-,N/A,,Scattered Clouds,0,2012-10-07 07:00:00
2:00 AM,64.4,64.4,100,30.01,6.2,Calm,Calm,-,N/A,,Scattered Clouds,0,2012-10-07 08:00:00
3:00 AM,65,65,99,29.85,6,Calm,Calm,,,,Mist,,2012-10-07 09:00:00
3:00 AM,64.4,64.4,100,30.27,6.2,Calm,Calm,-,N/A,,Mostly Cloudy,0,2012-10-07 09:00:00
4:00 AM,64.4,64.4,100,29.98,6.2,Calm,Calm,-,N/A,,Mostly Cloudy,0,2012-10-07 10:00:00
5:00 AM,64.4,64.4,100,30.01,6.2,Calm,Calm,-,N/A,,Mostly Cloudy,0,2012-10-07 11:00:00
6:00 AM,66,66,98,29.86,5,,2.3,,,,Mist,,2012-10-07 12:00:00
6:00 AM,66.2,66.2,100,30.01,5.0,Variable,2.3,-,N/A,,Mostly Cloudy,0,2012-10-07 12:00:00
7:00 AM,68.0,68.0,100,30.04,5.0,Calm,Calm,-,N/A,,Scattered Clouds,0,2012-10-07 13:00:00
8:00 AM,71.6,68.0,88,30.04,3.1,West,2.3,-,N/A,,Mostly Cloudy,260,2012-10-07 14:00:00
9:00 AM,75,68,73,29.83,6,NNW,4.6,,,,Haze,340,2012-10-07 15:00:00
9:00 AM,75.2,68.0,78,30.04,6.2,NNW,4.6,-,N/A,,Mostly Cloudy,340,2012-10-07 15:00:00
10:00 AM,78.8,69.8,74,30.04,6.2,North,5.8,-,N/A,,Mostly Cloudy,10,2012-10-07 16:00:00
11:00 AM,78.8,68.0,69,30.04,6.2,North,5.8,-,N/A,,Mostly Cloudy,10,2012-10-07 17:00:00
12:00 PM,81,69,58,29.76,7,North,6.9,,,,Haze,350,2012-10-07 18:00:00
12:00 PM,80.6,68.0,65,30.01,6.2,North,6.9,-,N/A,,Mostly Cloudy,350,2012-10-07 18:00:00
1:00 PM,78.8,68.0,69,29.98,6.2,Variable,2.3,-,N/A,,Mostly Cloudy,0,2012-10-07 19:00:00
2:00 PM,77.0,68.0,74,29.95,5.6,North,8.1,-,N/A,,Mostly Cloudy,360,2012-10-07 20:00:00
3:00 PM,79,67,57,29.68,7,NNW,3.5,,,,Haze,340,2012-10-07 21:00:00
3:00 PM,78.8,66.2,65,29.92,6.2,NNW,3.5,-,N/A,,Scattered Clouds,340,2012-10-07 21:00:00
3:24 PM,78.8,68.0,69,29.92,3.7,SW,3.5,-,N/A,,Scattered Clouds,220,2012-10-07 21:24:00
4:00 PM,75.2,66.2,73,29.92,3.7,North,6.9,-,N/A,,Scattered Clouds,360,2012-10-07 22:00:00
5:00 PM,73.4,68.0,83,29.95,5.6,West,4.6,-,N/A,Thunderstorm,Thunderstorm,270,2012-10-07 23:00:00
6:00 PM,72,68,84,29.81,6,West,5.8,,,Thunderstorm,Thunderstorm,270,2012-10-08 00:00:00
6:00 PM,71.6,68.0,88,29.98,6.2,West,5.8,-,N/A,Thunderstorm,Thunderstorm,270,2012-10-08 00:00:00
7:00 PM,69.8,68.0,94,30.01,5.6,West,3.5,-,N/A,Thunderstorm,Unknown,270,2012-10-08 01:00:00
8:00 PM,69.8,68.0,94,30.04,6.2,WSW,4.6,-,N/A,,Partly Cloudy,240,2012-10-08 02:00:00
9:00 PM,69,68,94,29.90,6,SSW,2.3,,,,Scattered Clouds,200,2012-10-08 03:00:00
9:00 PM,69.8,68.0,94,30.06,6.2,SSW,2.3,-,N/A,,Mostly Cloudy,200,2012-10-08 03:00:00
10:00 PM,68.0,68.0,100,30.06,6.2,Calm,Calm,-,N/A,,Mostly Cloudy,0,2012-10-08 04:00:00
11:00 PM,68.0,68.0,100,30.06,6.2,Calm,Calm,-,N/A,,Mostly Cloudy,0,2012-10-08 05:00:00